Time;durP1;ratioP1;P1;durP2;ratioP2;P2;SDS_P1;SDS_P2;PMS_P1;PMS_P2;Temp;Humidity;BMP_temperature;BMP_pressure;BME280_temperature;BME280_humidity;BME280_pressure;Samples;Min_cycle;Max_cycle;Signal;HPM_P1;HPM_P2
2023/09/29 00:02:07;;;;;;;5.10;3.20;;;;;;;20.64;74.97;100516.44;5008090;28;20610;-68
2023/09/29 00:04:33;;;;;;;5.30;3.30;;;;;;;20.65;74.79;100517.25;5006484;28;20187;-67
2023/09/29 00:06:59;;;;;;;5.30;3.27;;;;;;;20.63;74.71;100514.78;4973736;28;20186;-67
2023/09/29 00:09:24;;;;;;;6.17;3.47;;;;;;;20.64;75.09;100519.31;5005643;28;20209;-67
2023/09/29 00:11:49;;;;;;;5.63;3.60;;;;;;;20.63;74.69;100520.50;5005721;28;20201;-67
2023/09/29 00:14:15;;;;;;;7.57;4.20;;;;;;;20.63;74.77;100514.78;4991741;28;20196;-67
2023/09/29 00:16:40;;;;;;;7.83;4.20;;;;;;;20.63;74.80;100502.50;5008434;28;20229;-67
2023/09/29 00:19:06;;;;;;;5.43;3.53;;;;;;;20.62;74.93;100503.72;5006561;28;20199;-67
2023/09/29 00:21:31;;;;;;;6.20;3.60;;;;;;;20.63;74.62;100513.97;4991882;28;20901;-67
2023/09/29 00:23:57;;;;;;;5.40;3.30;;;;;;;20.62;74.59;100513.13;4991843;28;20184;-67
2023/09/29 00:26:22;;;;;;;7.70;4.00;;;;;;;20.63;74.98;100519.69;4991329;28;20188;-67
2023/09/29 00:28:48;;;;;;;6.03;3.23;;;;;;;20.61;74.39;100514.34;5009596;28;20197;-68
2023/09/29 00:31:15;;;;;;;4.73;2.97;;;;;;;20.62;74.62;100523.78;5008290;28;20919;-67
2023/09/29 00:33:41;;;;;;;5.97;3.20;;;;;;;20.63;74.75;100516.84;4989496;28;20177;-67
2023/09/29 00:36:09;;;;;;;4.60;3.30;;;;;;;20.61;74.46;100517.22;5009536;28;20434;-66
2023/09/29 00:38:34;;;;;;;5.60;3.60;;;;;;;20.62;74.10;100515.19;4992238;28;20177;-72
2023/09/29 00:41:00;;;;;;;6.40;3.53;;;;;;;20.60;74.81;100515.56;5008142;28;20463;-71
2023/09/29 00:43:27;;;;;;;5.93;3.60;;;;;;;20.61;74.61;100510.63;4974389;28;20178;-73
2023/09/29 00:45:52;;;;;;;4.90;3.13;;;;;;;20.61;74.57;100505.75;4988886;28;20212;-72
2023/09/29 00:48:19;;;;;;;5.70;2.87;;;;;;;20.60;74.54;100509.00;4987377;28;20456;-72
2023/09/29 00:50:45;;;;;;;5.60;3.80;;;;;;;20.61;74.61;100496.28;5010884;28;20184;-72
2023/09/29 00:53:14;;;;;;;4.90;3.10;;;;;;;20.60;74.30;100497.50;5008086;28;20562;-72
2023/09/29 00:55:42;;;;;;;7.00;3.57;;;;;;;20.59;74.47;100493.84;4986992;28;20256;-72
2023/09/29 00:58:08;;;;;;;6.10;3.30;;;;;;;20.60;74.72;100498.34;4971739;28;20425;-72
2023/09/29 01:00:38;;;;;;;5.47;3.10;;;;;;;20.60;74.34;100509.00;4989273;28;20435;-72
2023/09/29 01:03:05;;;;;;;5.60;3.50;;;;;;;20.61;74.11;100513.50;4979978;28;20189;-72
2023/09/29 01:05:35;;;;;;;6.60;3.57;;;;;;;20.60;74.30;100506.13;5006426;28;20998;-73
2023/09/29 01:08:02;;;;;;;4.53;3.10;;;;;;;20.59;74.62;100501.59;4977260;28;20840;-72
2023/09/29 01:10:28;;;;;;;5.10;3.30;;;;;;;20.59;74.13;100502.44;4991707;28;20456;-72
2023/09/29 01:12:53;;;;;;;6.20;3.30;;;;;;;20.59;74.51;100505.31;5009336;28;20416;-72
2023/09/29 01:15:19;;;;;;;6.00;3.20;;;;;;;20.59;74.51;100501.59;4974445;28;20208;-71
2023/09/29 01:17:44;;;;;;;5.37;3.33;;;;;;;20.59;74.37;100504.47;4988350;28;20225;-73
2023/09/29 01:20:25;;;;;;;5.80;3.47;;;;;;;20.58;74.12;100500.78;4988745;28;20178;-72
2023/09/29 01:22:50;;;;;;;5.67;3.27;;;;;;;20.57;74.27;100493.38;5004873;28;20614;-72
2023/09/29 01:25:16;;;;;;;4.50;2.97;;;;;;;20.58;73.98;100488.50;4958373;28;20437;-73
2023/09/29 01:27:41;;;;;;;5.47;2.73;;;;;;;20.58;74.27;100495.03;4991884;28;20308;-72
2023/09/29 01:30:07;;;;;;;5.50;2.97;;;;;;;20.57;74.28;100504.88;5009422;28;20189;-73
2023/09/29 01:32:33;;;;;;;3.70;2.80;;;;;;;20.58;74.40;100491.34;4975593;28;20169;-71
2023/09/29 01:34:59;;;;;;;4.03;2.90;;;;;;;20.58;74.25;100491.34;4972061;28;20883;-72
2023/09/29 01:37:25;;;;;;;6.60;3.53;;;;;;;20.57;74.18;100490.53;5007847;28;20420;-72
2023/09/29 01:39:51;;;;;;;4.77;3.10;;;;;;;20.57;74.59;100475.38;5005051;28;20189;-72
2023/09/29 01:42:16;;;;;;;4.17;2.60;;;;;;;20.57;74.47;100476.19;4991883;28;20446;-70
2023/09/29 01:44:42;;;;;;;5.50;3.33;;;;;;;20.58;74.28;100485.63;4986491;28;20636;-72
2023/09/29 01:47:08;;;;;;;4.23;2.67;;;;;;;20.58;74.16;100488.50;5004614;28;20675;-72
2023/09/29 01:49:33;;;;;;;4.67;2.87;;;;;;;20.57;74.53;100481.91;5011157;28;20169;-67
2023/09/29 01:51:59;;;;;;;4.40;2.73;;;;;;;20.57;74.16;100486.84;4977229;28;20451;-67
2023/09/29 01:54:24;;;;;;;5.23;3.10;;;;;;;20.55;74.13;100492.97;4993891;28;20173;-67
2023/09/29 01:56:50;;;;;;;6.23;3.47;;;;;;;20.55;74.18;100484.34;4994038;28;20225;-66
2023/09/29 01:59:16;;;;;;;5.00;3.57;;;;;;;20.56;74.20;100490.91;4994168;28;20235;-67
2023/09/29 02:01:41;;;;;;;5.53;2.70;;;;;;;20.55;74.20;100492.97;5011373;28;20402;-67
2023/09/29 02:04:07;;;;;;;5.40;3.00;;;;;;;20.55;73.92;100486.38;4974422;28;20232;-67
2023/09/29 02:06:32;;;;;;;4.40;2.73;;;;;;;20.55;74.00;100492.97;4991779;28;20185;-66
2023/09/29 02:08:58;;;;;;;4.57;2.80;;;;;;;20.56;73.93;100491.75;4991422;28;20194;-66
2023/09/29 02:11:23;;;;;;;5.23;2.70;;;;;;;20.55;74.17;100484.34;5009500;28;20263;-67
2023/09/29 02:13:49;;;;;;;5.97;2.90;;;;;;;20.55;73.86;100481.50;5011111;28;20165;-67
2023/09/29 02:16:15;;;;;;;5.30;2.93;;;;;;;20.56;73.88;100491.75;5007132;28;20236;-67
2023/09/29 02:18:41;;;;;;;4.80;3.00;;;;;;;20.54;73.91;100479.84;5007308;28;20178;-67
2023/09/29 02:21:07;;;;;;;4.80;2.97;;;;;;;20.54;74.19;100479.84;4994760;28;20443;-66
2023/09/29 02:23:38;;;;;;;3.70;2.70;;;;;;;20.54;74.18;100471.25;4994332;28;20447;-67
2023/09/29 02:26:04;;;;;;;4.50;2.70;;;;;;;20.53;74.01;100463.03;4994661;28;20177;-67
2023/09/29 02:28:32;;;;;;;4.20;3.00;;;;;;;20.53;74.32;100474.50;4994659;28;20442;-67
2023/09/29 02:31:02;;;;;;;5.50;3.17;;;;;;;20.54;74.07;100481.88;5011093;28;20552;-67
2023/09/29 02:33:28;;;;;;;5.70;2.97;;;;;;;20.54;73.90;100467.53;4971096;28;20450;-67
2023/09/29 02:35:53;;;;;;;4.90;3.20;;;;;;;20.54;73.99;100471.25;5010572;28;20405;-67
2023/09/29 02:38:19;;;;;;;5.07;3.13;;;;;;;20.54;73.83;100482.72;5008490;28;20292;-67
2023/09/29 02:40:47;;;;;;;3.93;2.83;;;;;;;20.53;73.89;100491.69;4999909;28;20184;-67
2023/09/29 02:43:12;;;;;;;3.70;2.67;;;;;;;20.53;73.77;100486.78;4976629;28;20183;-67
2023/09/29 02:45:40;;;;;;;4.97;2.97;;;;;;;20.54;73.71;100496.22;5007261;28;20440;-66
2023/09/29 02:48:06;;;;;;;5.43;3.57;;;;;;;20.54;74.28;100502.78;5010053;28;20197;-67
2023/09/29 02:50:34;;;;;;;5.43;3.17;;;;;;;20.51;74.03;100500.69;4975983;28;20478;-67
2023/09/29 02:53:01;;;;;;;4.50;2.60;;;;;;;20.53;73.85;100503.19;4993441;28;21234;-67
2023/09/29 02:55:27;;;;;;;4.00;2.43;;;;;;;20.52;74.01;100485.13;4994077;28;20420;-67
2023/09/29 02:57:53;;;;;;;3.93;2.77;;;;;;;20.52;74.23;100485.13;4993002;28;20894;-67
2023/09/29 03:00:18;;;;;;;5.20;2.93;;;;;;;20.52;74.26;100475.72;4993331;28;20173;-67
2023/09/29 03:02:44;;;;;;;4.80;2.70;;;;;;;20.52;73.64;100482.25;4973556;28;20937;-67
2023/09/29 03:05:09;;;;;;;4.60;2.97;;;;;;;20.52;74.01;100490.88;4994265;28;20228;-67
2023/09/29 03:07:36;;;;;;;3.87;2.50;;;;;;;20.51;73.97;100486.34;5001801;28;20661;-67
2023/09/29 03:10:05;;;;;;;5.10;3.00;;;;;;;20.51;73.93;100480.63;4992945;28;20665;-67
2023/09/29 03:12:30;;;;;;;4.40;3.10;;;;;;;20.52;73.79;100482.25;4994481;28;20404;-67
2023/09/29 03:14:57;;;;;;;5.40;3.63;;;;;;;20.51;73.75;100480.63;4993625;28;20416;-66
2023/09/29 03:17:22;;;;;;;4.40;2.90;;;;;;;20.51;73.75;100489.22;5001589;28;20240;-66
2023/09/29 03:19:48;;;;;;;4.60;2.67;;;;;;;20.51;73.75;100489.22;4993474;28;21167;-67
2023/09/29 03:22:14;;;;;;;5.13;2.80;;;;;;;20.49;73.95;100480.19;5009347;28;20252;-67
2023/09/29 03:24:39;;;;;;;4.63;3.23;;;;;;;20.50;73.78;100484.69;4992408;28;20853;-67
2023/09/29 03:27:05;;;;;;;4.43;2.77;;;;;;;20.50;73.75;100496.19;4992493;28;20181;-68
2023/09/29 03:29:30;;;;;;;4.00;2.60;;;;;;;20.51;74.08;100499.84;5004274;28;20216;-67
2023/09/29 03:31:56;;;;;;;3.80;2.37;;;;;;;20.50;73.65;100499.03;4990267;28;20506;-67
2023/09/29 03:34:23;;;;;;;5.20;2.80;;;;;;;20.51;73.75;100502.72;4991051;28;20618;-67
2023/09/29 03:36:50;;;;;;;4.70;2.93;;;;;;;20.49;73.71;100508.88;4988045;28;20205;-66
2023/09/29 03:39:17;;;;;;;5.57;2.80;;;;;;;20.50;74.05;100507.66;4990217;28;20861;-67
2023/09/29 03:41:43;;;;;;;4.00;2.80;;;;;;;20.49;73.87;100503.13;5005272;28;20543;-67
2023/09/29 03:44:09;;;;;;;4.47;2.77;;;;;;;20.50;73.65;100504.78;4989775;28;20441;-67
2023/09/29 03:46:34;;;;;;;4.10;2.70;;;;;;;20.50;73.92;100501.91;5009198;28;20471;-67
2023/09/29 03:48:59;;;;;;;5.87;3.47;;;;;;;20.49;74.06;100503.13;4992637;28;20259;-67
2023/09/29 03:51:25;;;;;;;3.93;2.70;;;;;;;20.48;73.67;100501.50;5008052;28;20189;-66
2023/09/29 03:53:52;;;;;;;4.57;2.30;;;;;;;20.48;73.62;100507.22;5009306;28;20164;-67
2023/09/29 03:56:18;;;;;;;5.17;2.90;;;;;;;20.48;73.88;100504.34;5009735;28;20219;-67
2023/09/29 03:58:44;;;;;;;4.10;2.77;;;;;;;20.48;73.98;100500.66;5005929;28;20417;-67
2023/09/29 04:01:09;;;;;;;2.97;2.00;;;;;;;20.48;74.02;100507.22;4989585;28;20761;-67
2023/09/29 04:03:35;;;;;;;4.83;2.77;;;;;;;20.48;73.98;100500.66;4993789;28;20189;-67
2023/09/29 04:06:00;;;;;;;4.63;2.90;;;;;;;20.48;73.50;100507.22;4990796;28;20252;-67
2023/09/29 04:08:25;;;;;;;4.43;2.47;;;;;;;20.47;73.95;100505.53;4989599;28;20289;-72
2023/09/29 04:10:52;;;;;;;5.40;3.07;;;;;;;20.47;73.94;100499.81;4989376;28;20213;-72
2023/09/29 04:13:18;;;;;;;4.30;2.40;;;;;;;20.47;73.82;100501.88;4992799;28;20179;-72
2023/09/29 04:15:43;;;;;;;4.13;2.43;;;;;;;20.47;73.72;100508.41;4992358;28;20416;-71
2023/09/29 04:18:09;;;;;;;4.60;2.90;;;;;;;20.46;73.45;100515.38;4988398;28;20198;-72
2023/09/29 04:20:34;;;;;;;3.17;2.00;;;;;;;20.47;73.82;100508.41;4990533;28;20185;-72
2023/09/29 04:23:00;;;;;;;4.57;2.47;;;;;;;20.47;73.34;100511.28;4989061;28;20162;-72
2023/09/29 04:25:25;;;;;;;3.70;2.37;;;;;;;20.46;73.66;100521.09;4989853;28;20170;-72
2023/09/29 04:27:51;;;;;;;4.00;2.73;;;;;;;20.46;73.83;100521.09;4991576;28;20200;-72
2023/09/29 04:30:16;;;;;;;4.50;3.00;;;;;;;20.47;73.65;100528.50;5002375;28;20190;-72
2023/09/29 04:32:41;;;;;;;4.20;2.70;;;;;;;20.46;73.38;100521.09;4958428;28;20190;-72
2023/09/29 04:35:08;;;;;;;4.40;2.70;;;;;;;20.46;73.71;100517.44;4971891;28;20236;-72
2023/09/29 04:37:33;;;;;;;3.83;2.60;;;;;;;20.46;73.99;100515.38;4990730;28;20193;-72
2023/09/29 04:39:59;;;;;;;4.60;2.90;;;;;;;20.47;73.34;100516.22;4978031;28;20433;-72
2023/09/29 04:42:24;;;;;;;3.67;2.57;;;;;;;20.45;73.77;100513.72;5000939;28;20217;-72
2023/09/29 04:44:50;;;;;;;3.87;2.53;;;;;;;20.46;73.42;100508.81;4990129;28;20158;-72
2023/09/29 04:47:15;;;;;;;4.87;2.77;;;;;;;20.45;73.49;100513.72;5004976;28;20704;-73
2023/09/29 04:49:41;;;;;;;3.80;2.57;;;;;;;20.45;73.58;100513.72;5004983;28;20522;-72
2023/09/29 04:52:07;;;;;;;3.93;2.70;;;;;;;20.44;73.56;100514.94;4992264;28;20196;-72
2023/09/29 04:54:32;;;;;;;3.83;2.43;;;;;;;20.45;73.57;100521.50;4991535;28;20165;-71
2023/09/29 04:56:57;;;;;;;3.70;2.40;;;;;;;20.46;73.61;100523.16;4981820;28;20235;-72
2023/09/29 04:59:23;;;;;;;3.90;2.47;;;;;;;20.44;73.70;100519.84;4991240;28;20169;-72
2023/09/29 05:01:48;;;;;;;4.73;2.70;;;;;;;20.45;73.52;100518.63;5003908;28;20185;-72
2023/09/29 05:04:14;;;;;;;4.23;2.57;;;;;;;20.44;73.62;100517.81;4991749;28;20831;-72
2023/09/29 05:06:39;;;;;;;4.53;2.80;;;;;;;20.44;73.65;100517.81;4990666;28;20893;-72
2023/09/29 05:09:06;;;;;;;4.00;2.30;;;;;;;20.44;73.84;100517.81;4988325;28;20582;-72
2023/09/29 05:11:31;;;;;;;4.10;2.40;;;;;;;20.45;73.51;100525.19;4985937;28;20200;-72
2023/09/29 05:13:56;;;;;;;4.43;2.60;;;;;;;20.44;73.83;100522.72;4990278;28;20400;-72
2023/09/29 05:16:22;;;;;;;3.70;2.60;;;;;;;20.44;73.65;100523.56;4978164;28;20221;-72
2023/09/29 05:18:48;;;;;;;4.53;2.80;;;;;;;20.44;73.69;100523.56;4987336;28;20256;-67
2023/09/29 05:21:14;;;;;;;4.17;2.83;;;;;;;20.43;73.41;100516.16;4987665;28;20630;-67
2023/09/29 05:23:39;;;;;;;3.73;2.50;;;;;;;20.44;73.71;100519.84;5008896;28;20216;-67
2023/09/29 05:26:07;;;;;;;3.50;2.20;;;;;;;20.44;73.31;100523.56;4974054;28;20846;-67
2023/09/29 05:28:32;;;;;;;3.87;2.37;;;;;;;20.43;73.39;100521.06;4990957;28;20224;-67
2023/09/29 05:30:58;;;;;;;5.53;2.40;;;;;;;20.43;73.74;100519.03;4989848;28;20437;-68
2023/09/29 05:33:24;;;;;;;4.23;2.47;;;;;;;20.43;73.30;100519.03;5007777;28;20174;-66
2023/09/29 05:35:49;;;;;;;4.33;2.60;;;;;;;20.44;73.45;100516.97;4995132;28;20765;-67
2023/09/29 05:38:15;;;;;;;5.60;2.70;;;;;;;20.44;73.54;100519.84;5001181;28;20688;-67
2023/09/29 05:40:40;;;;;;;3.80;2.43;;;;;;;20.42;73.53;100514.50;5012348;28;20181;-67
2023/09/29 05:43:10;;;;;;;3.93;2.30;;;;;;;20.42;73.40;100520.22;4993487;28;20193;-67
2023/09/29 05:45:41;;;;;;;3.97;2.50;;;;;;;20.43;73.65;100527.63;5013103;28;20547;-66
2023/09/29 05:48:07;;;;;;;4.10;2.70;;;;;;;20.42;73.65;100525.97;4988955;28;21046;-67
2023/09/29 05:50:32;;;;;;;3.27;2.27;;;;;;;20.43;73.39;100530.50;4995073;28;20423;-66
2023/09/29 05:52:58;;;;;;;3.90;2.70;;;;;;;20.43;73.47;100544.84;5011687;28;20271;-67
2023/09/29 05:55:24;;;;;;;4.20;2.47;;;;;;;20.43;73.59;100539.13;5010667;28;20169;-67
2023/09/29 05:57:50;;;;;;;3.80;2.70;;;;;;;20.42;73.46;100537.44;4975008;28;20753;-67
2023/09/29 06:00:16;;;;;;;4.03;2.57;;;;;;;20.42;73.44;100531.69;4991928;28;20188;-67
2023/09/29 06:02:41;;;;;;;3.70;1.83;;;;;;;20.43;73.30;100539.13;4991772;28;20495;-67
2023/09/29 06:05:07;;;;;;;4.50;2.57;;;;;;;20.43;73.53;100530.50;5008625;28;20176;-67
2023/09/29 06:07:32;;;;;;;2.97;1.90;;;;;;;20.42;73.56;100539.50;4995014;28;20559;-66
2023/09/29 06:09:58;;;;;;;4.47;2.53;;;;;;;20.42;73.51;100543.16;4995179;28;20566;-67
2023/09/29 06:12:23;;;;;;;3.70;2.07;;;;;;;20.44;73.37;100551.38;4994173;28;20643;-67
2023/09/29 06:14:49;;;;;;;3.70;2.20;;;;;;;20.41;73.37;100544.38;4994431;28;20613;-67
2023/09/29 06:17:14;;;;;;;4.13;2.53;;;;;;;20.42;73.24;100543.16;4976726;28;20756;-66
2023/09/29 06:19:41;;;;;;;4.40;2.47;;;;;;;20.42;73.49;100540.31;4990249;28;20185;-67
2023/09/29 06:22:06;;;;;;;3.73;2.20;;;;;;;20.41;73.32;100534.97;4993321;28;20268;-67
2023/09/29 06:24:32;;;;;;;3.60;2.10;;;;;;;20.42;73.31;100539.50;4975615;28;20858;-67
2023/09/29 06:26:58;;;;;;;3.80;2.47;;;;;;;20.41;73.52;100538.66;5007944;28;20185;-67
2023/09/29 06:29:23;;;;;;;3.53;2.30;;;;;;;20.41;73.21;100538.66;5009888;28;20958;-72
2023/09/29 06:31:49;;;;;;;4.07;2.47;;;;;;;20.42;73.27;100536.63;4993331;28;20546;-72
2023/09/29 06:34:14;;;;;;;3.33;2.00;;;;;;;20.42;73.21;100540.31;4990895;28;20532;-72
2023/09/29 06:36:40;;;;;;;3.90;2.40;;;;;;;20.41;73.14;100530.06;4999750;28;20182;-72
2023/09/29 06:39:05;;;;;;;3.90;2.60;;;;;;;20.42;73.28;100534.56;4990928;28;20193;-72
2023/09/29 06:41:31;;;;;;;3.60;2.30;;;;;;;20.41;73.34;100526.38;4987487;28;20208;-71
2023/09/29 06:43:56;;;;;;;3.10;1.90;;;;;;;20.41;73.21;100535.78;4994385;28;20181;-72
2023/09/29 06:46:21;;;;;;;4.23;2.40;;;;;;;20.41;73.41;100538.66;5004107;28;20654;-72
2023/09/29 06:48:47;;;;;;;4.13;2.67;;;;;;;20.41;73.32;100535.78;4996671;28;20216;-72
2023/09/29 06:51:14;;;;;;;3.93;2.67;;;;;;;20.41;73.51;100534.97;4990519;28;20193;-72
2023/09/29 06:53:39;;;;;;;4.50;2.70;;;;;;;20.41;73.44;100541.53;5010688;28;21009;-72
2023/09/29 06:56:05;;;;;;;3.17;2.03;;;;;;;20.41;72.90;100550.13;5011623;28;20432;-72
2023/09/29 06:58:30;;;;;;;4.20;2.70;;;;;;;20.42;73.40;100548.09;4987329;28;20240;-72
2023/09/29 07:00:57;;;;;;;4.10;2.40;;;;;;;20.41;73.40;100547.25;4993146;28;20182;-72
2023/09/29 07:03:23;;;;;;;4.20;2.67;;;;;;;20.41;73.19;100550.13;4999637;28;20189;-72
2023/09/29 07:05:49;;;;;;;3.43;2.10;;;;;;;20.40;73.26;100557.09;5003373;28;20474;-72
2023/09/29 07:08:15;;;;;;;4.00;2.60;;;;;;;20.40;73.18;100561.97;4993081;28;20468;-72
2023/09/29 07:10:42;;;;;;;3.70;2.23;;;;;;;20.41;73.41;100560.78;4971299;28;20574;-71
2023/09/29 07:13:07;;;;;;;4.20;2.70;;;;;;;20.40;73.41;100568.56;5009675;28;20200;-71
2023/09/29 07:15:32;;;;;;;3.87;2.53;;;;;;;20.41;72.93;100563.66;4992232;28;20550;-72
2023/09/29 07:17:58;;;;;;;4.60;2.37;;;;;;;20.41;73.04;100558.72;4991974;28;20229;-72
2023/09/29 07:20:24;;;;;;;4.90;2.30;;;;;;;20.41;73.37;100569.41;4990015;28;20184;-71
2023/09/29 07:22:51;;;;;;;3.60;2.17;;;;;;;20.41;73.13;100566.53;5008098;28;20173;-72
2023/09/29 07:25:18;;;;;;;3.47;2.30;;;;;;;20.41;73.27;100564.47;5006238;28;20445;-72
2023/09/29 07:27:44;;;;;;;3.47;2.30;;;;;;;20.40;73.38;100562.81;5009558;28;20922;-72
2023/09/29 07:30:10;;;;;;;3.30;1.93;;;;;;;20.41;73.04;100564.47;5001744;28;20429;-72
2023/09/29 07:32:38;;;;;;;2.90;1.90;;;;;;;20.42;73.08;100560.38;4988818;28;20204;-72
2023/09/29 07:35:07;;;;;;;3.63;2.30;;;;;;;20.41;73.27;100555.84;4992537;28;20294;-72
2023/09/29 07:37:33;;;;;;;2.80;2.03;;;;;;;20.41;73.36;100564.47;4992972;28;20514;-72
2023/09/29 07:39:58;;;;;;;3.23;2.33;;;;;;;20.41;72.91;100561.59;4991180;28;20444;-72
2023/09/29 07:42:23;;;;;;;3.10;2.00;;;;;;;20.40;73.18;100562.81;4978119;28;21001;-72
2023/09/29 07:44:49;;;;;;;3.53;2.50;;;;;;;20.41;73.06;100558.72;4988843;28;20708;-72
2023/09/29 07:47:14;;;;;;;3.63;2.70;;;;;;;20.42;73.20;100556.69;4992217;28;20194;-72
2023/09/29 07:49:40;;;;;;;3.50;2.37;;;;;;;20.41;73.07;100557.91;4991407;28;20209;-72
2023/09/29 07:52:09;;;;;;;4.10;2.50;;;;;;;20.41;72.71;100558.72;5005513;28;20224;-72
2023/09/29 07:54:34;;;;;;;2.93;1.97;;;;;;;20.42;72.80;100554.63;4986517;28;20319;-72
2023/09/29 07:57:00;;;;;;;4.43;2.27;;;;;;;20.41;73.13;100555.84;4965129;28;21098;-72
2023/09/29 07:59:26;;;;;;;3.00;2.17;;;;;;;20.41;72.81;100555.06;5009515;28;20261;-71
2023/09/29 08:01:52;;;;;;;3.80;2.30;;;;;;;20.42;72.89;100553.84;4975305;28;20189;-72
2023/09/29 08:04:18;;;;;;;3.50;2.43;;;;;;;20.42;73.05;100556.69;4992001;28;20185;-72
2023/09/29 08:06:43;;;;;;;3.90;2.03;;;;;;;20.41;73.01;100558.72;5008651;28;20436;-72
2023/09/29 08:09:09;;;;;;;3.00;2.00;;;;;;;20.42;72.80;100566.13;4991371;28;20543;-72
2023/09/29 08:11:34;;;;;;;3.70;2.40;;;;;;;20.42;73.00;100563.25;4984606;28;20205;-72
2023/09/29 08:14:00;;;;;;;3.03;2.17;;;;;;;20.42;73.08;100566.13;5007009;28;20271;-72
2023/09/29 08:16:25;;;;;;;4.73;2.43;;;;;;;20.43;72.89;100564.91;5007944;28;20674;-72
2023/09/29 08:18:50;;;;;;;3.60;2.30;;;;;;;20.42;73.04;100562.44;4989764;28;20185;-72
2023/09/29 08:21:16;;;;;;;3.40;2.30;;;;;;;20.42;73.07;100559.56;5006178;28;20184;-72
2023/09/29 08:23:41;;;;;;;4.03;2.60;;;;;;;20.43;72.93;100564.09;4990072;28;20780;-71
2023/09/29 08:26:07;;;;;;;3.73;2.10;;;;;;;20.43;72.93;100566.94;4990431;28;20660;-72
2023/09/29 08:28:32;;;;;;;3.53;2.17;;;;;;;20.42;72.77;100568.97;4989953;28;20208;-71
2023/09/29 08:30:58;;;;;;;3.60;1.90;;;;;;;20.42;72.93;100577.59;4990108;28;20188;-72
2023/09/29 08:33:27;;;;;;;3.63;2.30;;;;;;;20.43;72.76;100572.69;4973161;28;20533;-71
2023/09/29 08:35:55;;;;;;;3.43;2.40;;;;;;;20.43;72.55;100582.13;5006707;28;20196;-72
2023/09/29 08:38:21;;;;;;;3.80;2.57;;;;;;;20.42;72.93;100568.97;4990576;28;20479;-72
2023/09/29 08:40:47;;;;;;;2.70;1.97;;;;;;;20.43;72.78;100572.69;4987708;28;20455;-72
2023/09/29 08:43:13;;;;;;;4.07;2.37;;;;;;;20.44;72.49;100577.19;4989770;28;20447;-72
2023/09/29 08:45:42;;;;;;;4.63;2.73;;;;;;;20.43;72.84;100572.69;4989023;28;20192;-72
2023/09/29 08:48:11;;;;;;;4.33;2.60;;;;;;;20.43;72.89;100575.56;4977553;28;20547;-67
2023/09/29 08:50:40;;;;;;;3.47;2.20;;;;;;;20.43;72.81;100585.00;4990695;28;20431;-72
2023/09/29 08:53:05;;;;;;;3.50;2.20;;;;;;;20.43;72.44;100582.13;4973592;28;20841;-72
2023/09/29 08:55:30;;;;;;;3.00;2.00;;;;;;;20.43;72.79;100602.22;4989506;28;20542;-72
2023/09/29 08:57:56;;;;;;;3.40;2.10;;;;;;;20.43;72.58;100587.88;4990681;28;20544;-72
2023/09/29 09:00:23;;;;;;;4.30;2.53;;;;;;;20.45;72.77;100598.94;4990275;28;20279;-72
2023/09/29 09:02:48;;;;;;;3.50;2.00;;;;;;;20.43;72.44;100596.47;4982619;28;20629;-72
2023/09/29 09:05:17;;;;;;;3.33;2.20;;;;;;;20.43;72.83;100599.34;5006840;28;20423;-72
2023/09/29 09:07:43;;;;;;;4.13;2.30;;;;;;;20.44;72.36;100591.53;4989315;28;20197;-72
2023/09/29 09:10:09;;;;;;;4.27;2.80;;;;;;;20.43;72.89;100595.63;4989367;28;20451;-72
2023/09/29 09:12:35;;;;;;;3.90;2.30;;;;;;;20.43;72.47;100599.34;4988630;28;21029;-72
2023/09/29 09:15:03;;;;;;;3.43;2.10;;;;;;;20.44;72.46;100591.53;4988136;28;20679;-72
2023/09/29 09:17:28;;;;;;;3.57;2.00;;;;;;;20.44;72.83;100592.38;4989126;28;20475;-71
2023/09/29 09:19:54;;;;;;;3.47;2.40;;;;;;;20.45;72.39;100596.91;5004183;28;20486;-72
2023/09/29 09:22:25;;;;;;;4.63;2.87;;;;;;;20.45;72.53;100605.50;5006690;28;20169;-71
2023/09/29 09:25:00;;;;;;;3.00;2.00;;;;;;;20.45;72.54;100602.63;4977238;28;20901;-72
2023/09/29 09:27:25;;;;;;;3.10;2.07;;;;;;;20.46;72.76;100606.34;4986436;28;20902;-72
2023/09/29 09:29:51;;;;;;;4.60;2.40;;;;;;;20.45;72.74;100604.66;5006383;28;20478;-72
2023/09/29 09:32:26;;;;;;;4.90;2.93;;;;;;;20.45;72.67;100594.03;5005783;28;20189;-71
2023/09/29 09:34:52;;;;;;;3.80;2.20;;;;;;;20.45;72.83;100608.38;4980183;28;20244;-70
2023/09/29 09:37:27;;;;;;;4.73;2.07;;;;;;;20.47;72.49;100603.06;5004900;28;20938;-70
2023/09/29 09:39:54;;;;;;;4.17;2.27;;;;;;;20.46;72.22;100601.41;5006488;28;20187;-69
2023/09/29 09:42:21;;;;;;;5.23;2.10;;;;;;;20.46;72.52;100604.28;5005743;28;20455;-70
2023/09/29 09:44:46;;;;;;;4.80;2.83;;;;;;;20.45;71.93;100602.63;4989438;28;20432;-71
2023/09/29 09:47:12;;;;;;;3.70;2.50;;;;;;;20.46;72.12;100601.41;4989276;28;20427;-70
2023/09/29 09:49:48;;;;;;;4.33;2.80;;;;;;;20.46;72.52;100598.53;5005112;28;20212;-71
2023/09/29 09:52:23;;;;;;;4.90;2.40;;;;;;;20.47;72.48;100605.13;5007387;28;20843;-71
2023/09/29 09:54:49;;;;;;;3.63;2.43;;;;;;;20.47;72.32;100605.94;4972895;28;20456;-71
2023/09/29 09:57:22;;;;;;;3.73;2.30;;;;;;;20.47;72.25;100605.94;4981903;28;20478;-71
2023/09/29 09:59:48;;;;;;;5.20;2.80;;;;;;;20.48;72.38;100604.75;5005707;28;20637;-70
2023/09/29 10:02:14;;;;;;;4.00;2.40;;;;;;;20.48;72.31;100607.59;5005765;28;20449;-71
2023/09/29 10:04:39;;;;;;;3.73;2.00;;;;;;;20.47;72.09;100594.47;4972131;28;20958;-70
2023/09/29 10:07:05;;;;;;;3.70;2.20;;;;;;;20.49;72.61;100599.81;5005196;28;20513;-71
2023/09/29 10:09:44;;;;;;;4.70;2.30;;;;;;;20.49;72.39;100603.53;4992152;28;20301;-71
2023/09/29 10:12:22;;;;;;;6.77;2.30;;;;;;;20.49;72.39;100603.53;4991635;28;20761;-70
2023/09/29 10:14:47;;;;;;;4.90;2.80;;;;;;;20.50;72.11;100602.31;5007560;28;20765;-70
2023/09/29 10:17:13;;;;;;;3.50;2.37;;;;;;;20.48;72.22;100599.00;5008812;28;20491;-71
2023/09/29 10:19:38;;;;;;;3.90;2.30;;;;;;;20.50;72.05;100596.56;4992703;28;20192;-71
2023/09/29 10:22:04;;;;;;;3.97;2.27;;;;;;;20.50;71.91;100596.56;5007937;28;20209;-70
2023/09/29 10:24:30;;;;;;;5.20;2.30;;;;;;;20.51;72.40;100592.47;4993173;28;20181;-71
2023/09/29 10:26:59;;;;;;;3.83;2.37;;;;;;;20.51;72.08;100597.38;5010571;28;20189;-71
2023/09/29 10:29:25;;;;;;;5.40;2.27;;;;;;;20.52;72.42;100593.31;4992796;28;20200;-71
2023/09/29 10:31:52;;;;;;;3.20;2.00;;;;;;;20.52;72.30;100599.06;4990173;28;20447;-71
2023/09/29 10:34:22;;;;;;;2.93;2.07;;;;;;;20.52;72.39;100605.59;4993076;28;20475;-71
2023/09/29 10:36:56;;;;;;;3.80;2.43;;;;;;;20.52;72.44;100594.13;4977021;28;20424;-71
2023/09/29 10:39:29;;;;;;;3.90;2.40;;;;;;;20.53;72.30;100594.97;4975902;28;20431;-70
2023/09/29 10:42:12;;;;;;;3.87;2.40;;;;;;;20.54;72.14;100590.88;4976944;28;20501;-71
2023/09/29 10:44:52;;;;;;;3.67;2.17;;;;;;;20.55;72.12;100589.66;5009777;28;20930;-71
2023/09/29 10:47:17;;;;;;;4.97;2.90;;;;;;;20.55;72.25;100590.50;4993706;28;21092;-70
2023/09/29 10:49:46;;;;;;;3.60;2.47;;;;;;;20.55;72.51;100598.25;4991885;28;20469;-71
2023/09/29 10:52:22;;;;;;;5.90;2.63;;;;;;;20.57;72.36;100595.84;5006654;28;20189;-71
2023/09/29 10:54:55;;;;;;;4.80;2.40;;;;;;;20.56;72.35;100595.00;4992804;28;20459;-71
2023/09/29 10:57:21;;;;;;;4.23;2.60;;;;;;;20.57;72.15;100590.91;5009308;28;20420;-70
2023/09/29 10:59:48;;;;;;;4.60;2.17;;;;;;;20.56;72.09;100594.16;4975395;28;20907;-71
2023/09/29 11:02:13;;;;;;;3.70;2.20;;;;;;;20.57;71.89;100581.50;5008192;28;20201;-71
2023/09/29 11:04:39;;;;;;;4.63;2.60;;;;;;;20.59;72.15;100588.50;4972566;28;20421;-71
2023/09/29 11:07:04;;;;;;;3.63;2.57;;;;;;;20.58;72.31;100580.28;4994410;28;20185;-69
2023/09/29 11:09:31;;;;;;;3.87;1.80;;;;;;;20.58;72.11;100580.28;4991963;28;20209;-66
2023/09/29 11:11:57;;;;;;;3.83;2.43;;;;;;;20.60;72.43;100574.97;4993075;28;20205;-66
2023/09/29 11:14:22;;;;;;;4.90;2.60;;;;;;;20.60;71.89;100572.09;4970321;28;20423;-66
2023/09/29 11:16:57;;;;;;;3.80;2.03;;;;;;;20.60;72.01;100566.38;4976749;28;21002;-66
2023/09/29 11:19:25;;;;;;;3.80;2.43;;;;;;;20.58;71.86;100566.75;4988675;28;20191;-66
2023/09/29 11:21:50;;;;;;;4.67;2.90;;;;;;;20.60;72.29;100572.94;4992291;28;20934;-66